createdAt,value
2023-05-12T00:02:05.906Z,40.25
2023-05-12T00:04:32.325Z,40.48
2023-05-12T00:06:59.150Z,40.63
2023-05-12T00:09:25.527Z,40.46
2023-05-12T00:11:51.938Z,40.33
2023-05-12T00:14:18.688Z,40.59
2023-05-12T00:16:45.107Z,40.70
2023-05-12T00:19:11.600Z,40.80
2023-05-12T00:21:37.978Z,40.78
2023-05-12T00:24:04.401Z,40.59
2023-05-12T00:26:30.806Z,40.94
2023-05-12T00:28:57.177Z,40.45
2023-05-12T00:31:23.661Z,40.84
2023-05-12T00:33:50.044Z,40.91
2023-05-12T00:36:16.411Z,41.02
2023-05-12T00:38:42.924Z,41.46
2023-05-12T00:41:09.308Z,41.13
2023-05-12T00:43:36.780Z,41.00
2023-05-12T00:46:03.409Z,41.12
2023-05-12T00:48:29.831Z,40.96
2023-05-12T00:50:56.350Z,41.07
2023-05-12T00:53:22.941Z,41.08
2023-05-12T00:55:49.437Z,40.94
2023-05-12T00:58:15.815Z,41.00
2023-05-12T01:00:42.165Z,41.04
2023-05-12T01:03:08.714Z,41.47
2023-05-12T01:05:35.176Z,41.63
2023-05-12T01:08:01.816Z,41.77
2023-05-12T01:10:28.138Z,41.76
2023-05-12T01:12:54.552Z,41.40
2023-05-12T01:15:20.912Z,41.77
2023-05-12T01:17:47.495Z,42.22
2023-05-12T01:20:14.008Z,43.26
2023-05-12T01:22:40.426Z,42.83
2023-05-12T01:25:06.795Z,42.48
2023-05-12T01:27:33.309Z,43.05
2023-05-12T01:29:59.739Z,43.68
2023-05-12T01:32:26.120Z,43.45
2023-05-12T01:34:52.510Z,43.26
2023-05-12T01:37:19.007Z,43.40
2023-05-12T01:39:45.471Z,43.54
2023-05-12T01:42:11.831Z,43.94
2023-05-12T01:44:38.246Z,43.26
2023-05-12T01:47:04.691Z,45.39
2023-05-12T01:49:31.121Z,44.73
2023-05-12T01:51:57.478Z,44.79
2023-05-12T01:54:23.871Z,44.30
2023-05-12T01:56:50.620Z,44.72
2023-05-12T01:59:17.010Z,44.60
2023-05-12T02:01:43.645Z,45.64
2023-05-12T02:04:10.121Z,45.60
2023-05-12T02:06:36.528Z,45.15
2023-05-12T02:09:03.182Z,45.73
2023-05-12T02:11:29.861Z,45.77
2023-05-12T02:13:56.235Z,46.05
2023-05-12T02:16:25.494Z,45.68
2023-05-12T02:18:52.071Z,45.11
2023-05-12T02:21:20.783Z,44.88
2023-05-12T02:23:48.278Z,45.32
2023-05-12T02:26:14.655Z,46.33
2023-05-12T02:28:41.047Z,45.72
2023-05-12T02:31:07.492Z,46.10
2023-05-12T02:33:33.921Z,45.65
2023-05-12T02:36:00.258Z,46.30
2023-05-12T02:38:26.679Z,46.31
2023-05-12T02:40:53.056Z,45.80
2023-05-12T02:43:19.642Z,46.07
2023-05-12T02:45:46.086Z,45.41
2023-05-12T02:48:12.465Z,46.32
2023-05-12T02:50:39.194Z,46.27
2023-05-12T02:53:05.632Z,45.85
2023-05-12T02:55:32.312Z,46.62
2023-05-12T02:57:58.955Z,46.08
2023-05-12T03:00:25.382Z,46.20
2023-05-12T03:02:51.853Z,46.16
2023-05-12T03:05:18.305Z,46.47
2023-05-12T03:07:45.128Z,47.37
2023-05-12T03:10:11.508Z,47.24
2023-05-12T03:12:37.873Z,47.74
2023-05-12T03:15:04.287Z,47.94
2023-05-12T03:17:31.005Z,48.34
2023-05-12T03:19:57.450Z,49.15
2023-05-12T03:22:23.895Z,47.99
2023-05-12T03:24:50.337Z,48.24
2023-05-12T03:27:16.647Z,47.62
2023-05-12T03:29:43.201Z,48.07
2023-05-12T03:32:09.598Z,49.05
2023-05-12T03:34:36.029Z,48.06
2023-05-12T03:37:02.456Z,48.32
2023-05-12T03:39:28.827Z,48.56
2023-05-12T03:41:55.212Z,48.73
2023-05-12T03:44:21.861Z,48.99
2023-05-12T03:46:48.341Z,47.85
2023-05-12T03:49:15.249Z,48.03
2023-05-12T03:51:41.789Z,47.85
2023-05-12T03:54:08.126Z,47.56
2023-05-12T03:56:34.569Z,48.00
2023-05-12T03:59:00.989Z,47.26
2023-05-12T04:01:27.389Z,48.19
2023-05-12T04:03:53.921Z,48.11
2023-05-12T04:06:20.353Z,48.40
2023-05-12T04:08:46.753Z,48.64
2023-05-12T04:11:13.712Z,48.46
2023-05-12T04:13:40.235Z,47.91
2023-05-12T04:16:06.582Z,47.98
2023-05-12T04:18:33.075Z,48.01
2023-05-12T04:20:59.462Z,48.68
2023-05-12T04:23:25.855Z,49.11
2023-05-12T04:25:52.401Z,48.00
2023-05-12T04:28:19.115Z,49.21
2023-05-12T04:30:45.546Z,49.13
2023-05-12T04:33:11.966Z,48.82
2023-05-12T04:35:39.041Z,48.57
2023-05-12T04:38:05.439Z,48.92
2023-05-12T04:40:34.716Z,49.27
2023-05-12T04:43:01.427Z,48.54
2023-05-12T04:45:27.855Z,49.34
2023-05-12T04:47:54.276Z,49.14
2023-05-12T04:50:20.740Z,49.76
2023-05-12T04:52:47.153Z,49.81
2023-05-12T04:55:13.482Z,49.21
2023-05-12T04:57:39.900Z,49.14
2023-05-12T05:00:06.418Z,49.31
2023-05-12T05:02:32.946Z,49.17
2023-05-12T05:04:59.392Z,49.45
2023-05-12T05:07:25.776Z,48.98
2023-05-12T05:09:52.105Z,49.40
2023-05-12T05:12:19.573Z,48.97
2023-05-12T05:14:45.953Z,48.57
2023-05-12T05:17:12.481Z,48.79
2023-05-12T05:19:53.135Z,48.74
2023-05-12T05:22:24.363Z,49.04
2023-05-12T05:24:50.789Z,49.02
2023-05-12T05:27:17.186Z,49.65
2023-05-12T05:29:43.594Z,49.04
2023-05-12T05:32:09.995Z,49.02
2023-05-12T05:34:36.580Z,48.28
2023-05-12T05:37:05.047Z,48.86
2023-05-12T05:39:31.389Z,48.79
2023-05-12T05:41:57.895Z,48.57
2023-05-12T05:44:24.305Z,48.15
2023-05-12T05:46:50.943Z,48.11
2023-05-12T05:49:17.411Z,48.57
2023-05-12T05:51:43.745Z,49.06
2023-05-12T05:54:10.125Z,49.49
2023-05-12T05:56:36.978Z,49.36
2023-05-12T05:59:03.840Z,48.83
2023-05-12T06:01:30.417Z,48.60
2023-05-12T06:03:57.027Z,48.91
2023-05-12T06:06:23.619Z,49.13
2023-05-12T06:08:50.052Z,49.09
2023-05-12T06:11:17.916Z,49.46
2023-05-12T06:13:44.487Z,49.35
2023-05-12T06:16:10.944Z,49.93
2023-05-12T06:18:37.504Z,49.53
2023-05-12T06:21:04.234Z,49.46
2023-05-12T06:23:30.654Z,50.42
2023-05-12T06:25:57.255Z,49.53
2023-05-12T06:28:23.719Z,50.38
2023-05-12T06:30:50.487Z,50.04
2023-05-12T06:33:16.852Z,50.20
2023-05-12T06:35:43.219Z,49.86
2023-05-12T06:38:09.567Z,49.13
2023-05-12T06:40:36.006Z,49.90
2023-05-12T06:43:02.606Z,49.95
2023-05-12T06:45:29.025Z,49.97
2023-05-12T06:47:55.656Z,50.76
2023-05-12T06:50:22.023Z,50.13
2023-05-12T06:52:48.501Z,49.57
2023-05-12T06:55:15.013Z,50.02
2023-05-12T06:57:41.403Z,50.42
2023-05-12T07:00:07.888Z,50.37
2023-05-12T07:02:34.298Z,51.18
2023-05-12T07:05:00.852Z,50.80
2023-05-12T07:07:27.241Z,50.44
2023-05-12T07:09:53.640Z,50.61
2023-05-12T07:12:19.993Z,50.86
2023-05-12T07:14:46.577Z,50.78
2023-05-12T07:17:13.028Z,50.70
2023-05-12T07:19:39.620Z,50.77
2023-05-12T07:22:06.076Z,51.06
2023-05-12T07:24:32.551Z,51.07
2023-05-12T07:26:59.086Z,51.29
2023-05-12T07:29:25.479Z,50.60
2023-05-12T07:31:52.014Z,51.17
2023-05-12T07:34:18.563Z,50.88
2023-05-12T07:36:45.096Z,51.14
2023-05-12T07:39:11.479Z,51.18
2023-05-12T07:41:37.848Z,51.01
2023-05-12T07:44:04.331Z,50.65
2023-05-12T07:46:30.741Z,50.84
2023-05-12T07:48:57.119Z,51.11
2023-05-12T07:51:23.542Z,51.53
2023-05-12T07:53:50.039Z,50.30
2023-05-12T07:56:19.532Z,50.79
2023-05-12T07:58:47.408Z,51.39
2023-05-12T08:01:14.438Z,50.78
2023-05-12T08:03:40.996Z,50.87
2023-05-12T08:06:07.509Z,50.23
2023-05-12T08:08:34.086Z,51.17
2023-05-12T08:11:01.850Z,51.38
2023-05-12T08:13:28.362Z,50.99
2023-05-12T08:15:55.051Z,50.85
2023-05-12T08:18:21.490Z,51.22
2023-05-12T08:20:47.914Z,51.32
2023-05-12T08:23:14.296Z,50.72
2023-05-12T08:25:42.783Z,51.22
2023-05-12T08:28:09.189Z,51.09
2023-05-12T08:30:35.795Z,50.36
2023-05-12T08:33:02.297Z,51.09
2023-05-12T08:35:29.074Z,50.33
2023-05-12T08:37:55.615Z,51.08
2023-05-12T08:40:22.031Z,50.90
2023-05-12T08:42:48.766Z,50.13
2023-05-12T08:45:15.151Z,51.20
2023-05-12T08:47:41.656Z,51.11
2023-05-12T08:50:08.587Z,51.00
2023-05-12T08:52:35.042Z,51.17
2023-05-12T08:55:03.260Z,50.66
2023-05-12T08:57:30.244Z,50.34
2023-05-12T08:59:56.648Z,50.51
2023-05-12T09:02:23.705Z,49.70
2023-05-12T09:04:50.431Z,49.91
2023-05-12T09:07:16.939Z,50.03
2023-05-12T09:09:43.757Z,49.75
2023-05-12T09:12:10.127Z,49.69
2023-05-12T09:14:36.724Z,50.25
2023-05-12T09:17:03.142Z,50.31
2023-05-12T09:19:29.737Z,50.62
2023-05-12T09:21:56.120Z,50.66
2023-05-12T09:24:22.833Z,50.48
2023-05-12T09:26:49.307Z,50.95
2023-05-12T09:29:27.789Z,49.99
2023-05-12T09:31:59.105Z,49.96
2023-05-12T09:34:25.583Z,49.82
2023-05-12T09:36:52.062Z,50.10
2023-05-12T09:39:18.960Z,50.60
2023-05-12T09:41:45.392Z,50.94
2023-05-12T09:44:11.746Z,51.27
2023-05-12T09:46:38.111Z,50.53
2023-05-12T09:49:04.653Z,50.09
2023-05-12T09:51:31.302Z,50.77
2023-05-12T09:53:57.843Z,51.51
2023-05-12T09:56:24.299Z,51.41
2023-05-12T09:58:50.950Z,51.21
2023-05-12T10:01:23.442Z,51.18
2023-05-12T10:03:50.659Z,50.65
2023-05-12T10:06:17.068Z,50.71
2023-05-12T10:08:43.502Z,50.51
2023-05-12T10:11:09.942Z,50.19
2023-05-12T10:13:36.369Z,49.02
2023-05-12T10:16:03.063Z,49.17
2023-05-12T10:18:29.463Z,49.58
2023-05-12T10:20:55.923Z,50.06
2023-05-12T10:23:22.593Z,50.57
2023-05-12T10:25:49.038Z,50.33
2023-05-12T10:28:15.521Z,49.73
2023-05-12T10:30:42.179Z,48.87
2023-05-12T10:33:08.685Z,47.87
2023-05-12T10:35:35.080Z,48.33
2023-05-12T10:38:01.586Z,47.41
2023-05-12T10:40:28.098Z,48.01
2023-05-12T10:42:54.513Z,47.21
2023-05-12T10:45:21.449Z,47.38
2023-05-12T10:47:48.141Z,47.12
2023-05-12T10:50:14.832Z,47.90
2023-05-12T10:52:41.316Z,47.34
2023-05-12T10:55:07.675Z,47.42
2023-05-12T10:57:34.672Z,47.04
2023-05-12T11:00:02.266Z,47.41
2023-05-12T11:02:30.613Z,47.48
2023-05-12T11:04:57.964Z,47.17
2023-05-12T11:07:24.923Z,47.86
2023-05-12T11:09:58.475Z,47.92
2023-05-12T11:12:25.508Z,48.43
2023-05-12T11:14:51.935Z,47.88
2023-05-12T11:17:18.339Z,47.56
2023-05-12T11:19:44.804Z,46.68
2023-05-12T11:22:11.226Z,46.36
2023-05-12T11:24:37.687Z,46.85
2023-05-12T11:27:04.317Z,46.43
2023-05-12T11:29:30.685Z,45.75
2023-05-12T11:31:59.972Z,45.81
2023-05-12T11:34:26.637Z,45.72
2023-05-12T11:36:53.050Z,46.22
2023-05-12T11:39:19.432Z,46.03
2023-05-12T11:41:45.843Z,46.20
2023-05-12T11:44:12.213Z,45.80
2023-05-12T11:46:38.606Z,47.23
2023-05-12T11:49:04.998Z,47.04
2023-05-12T11:51:31.368Z,46.96
2023-05-12T11:53:57.758Z,47.24
2023-05-12T11:56:24.193Z,46.95
2023-05-12T11:58:50.512Z,47.13
2023-05-12T12:01:16.856Z,47.35
2023-05-12T12:03:43.336Z,47.99
2023-05-12T12:06:09.985Z,47.37
2023-05-12T12:08:36.535Z,48.12
2023-05-12T12:11:03.683Z,47.65
2023-05-12T12:13:30.343Z,48.54
2023-05-12T12:15:56.753Z,48.65
2023-05-12T12:18:23.321Z,49.38
2023-05-12T12:20:49.775Z,49.95
2023-05-12T12:23:18.496Z,48.93
2023-05-12T12:25:44.909Z,49.69
2023-05-12T12:28:11.340Z,49.48
2023-05-12T12:30:37.723Z,48.81
2023-05-12T12:33:04.164Z,49.50
2023-05-12T12:35:30.664Z,49.89
2023-05-12T12:37:57.062Z,49.04
2023-05-12T12:40:23.479Z,49.67
2023-05-12T12:42:49.999Z,48.40
2023-05-12T12:45:18.509Z,49.38
2023-05-12T12:47:46.608Z,49.56
2023-05-12T12:50:13.109Z,49.96
2023-05-12T12:52:39.629Z,49.87
2023-05-12T12:55:06.032Z,48.97
2023-05-12T12:57:32.522Z,49.00
2023-05-12T12:59:58.878Z,49.17
2023-05-12T13:02:25.469Z,49.33
2023-05-12T13:04:51.999Z,50.44
2023-05-12T13:07:18.396Z,50.26
2023-05-12T13:09:44.880Z,49.90
2023-05-12T13:12:11.346Z,49.73
2023-05-12T13:14:39.659Z,48.32
2023-05-12T13:17:06.145Z,49.78
2023-05-12T13:19:32.622Z,49.32
2023-05-12T13:21:59.070Z,48.73
2023-05-12T13:24:25.430Z,48.84
2023-05-12T13:26:51.857Z,49.01
2023-05-12T13:29:18.485Z,48.61
2023-05-12T13:31:44.861Z,48.41
2023-05-12T13:34:11.242Z,48.67
2023-05-12T13:36:37.785Z,48.71
2023-05-12T13:39:04.195Z,48.52
2023-05-12T13:41:30.576Z,48.63
2023-05-12T13:43:56.944Z,48.99
2023-05-12T13:46:23.564Z,48.23
2023-05-12T13:48:50.332Z,48.95
2023-05-12T13:51:16.731Z,49.13
2023-05-12T13:53:44.187Z,49.28
2023-05-12T13:56:10.535Z,48.42
2023-05-12T13:58:37.958Z,48.39
2023-05-12T14:01:05.315Z,48.80
2023-05-12T14:03:33.796Z,50.13
2023-05-12T14:06:00.178Z,49.05
2023-05-12T14:08:28.898Z,48.31
2023-05-12T14:10:55.473Z,48.67
2023-05-12T14:13:21.882Z,49.21
2023-05-12T14:15:49.800Z,48.15
2023-05-12T14:18:16.634Z,48.39
2023-05-12T14:20:43.085Z,47.99
2023-05-12T14:23:09.431Z,48.45
2023-05-12T14:25:35.838Z,48.49
2023-05-12T14:28:02.226Z,48.31
2023-05-12T14:30:28.762Z,47.60
2023-05-12T14:32:56.410Z,47.66
2023-05-12T14:35:23.029Z,48.30
2023-05-12T14:37:52.409Z,47.98
2023-05-12T14:40:19.293Z,48.28
2023-05-12T14:42:45.675Z,47.97
2023-05-12T14:45:12.507Z,47.86
2023-05-12T14:47:38.970Z,48.26
2023-05-12T14:50:05.393Z,47.68
2023-05-12T14:52:31.769Z,47.89
2023-05-12T14:54:58.421Z,48.23
2023-05-12T14:57:25.037Z,48.18
2023-05-12T14:59:51.417Z,48.53
2023-05-12T15:02:18.100Z,48.15
2023-05-12T15:04:44.536Z,48.27
2023-05-12T15:07:11.022Z,47.73
2023-05-12T15:09:37.442Z,47.56
2023-05-12T15:12:03.896Z,47.94
2023-05-12T15:14:31.292Z,47.92
2023-05-12T15:16:57.926Z,47.81
2023-05-12T15:19:24.399Z,47.75
2023-05-12T15:21:51.086Z,48.04
2023-05-12T15:24:17.710Z,47.90
2023-05-12T15:26:45.073Z,48.20
2023-05-12T15:29:11.742Z,48.41
2023-05-12T15:31:38.304Z,48.22
2023-05-12T15:34:04.788Z,47.78
2023-05-12T15:36:31.258Z,47.83
2023-05-12T15:38:57.939Z,47.60
2023-05-12T15:41:24.278Z,47.62
2023-05-12T15:43:50.749Z,47.84
2023-05-12T15:46:17.341Z,47.52
2023-05-12T15:48:43.727Z,47.43
2023-05-12T15:51:10.065Z,47.61
2023-05-12T15:53:36.903Z,47.11
2023-05-12T15:56:04.555Z,47.29
2023-05-12T15:58:30.948Z,47.76
2023-05-12T16:00:57.380Z,47.65
2023-05-12T16:03:23.953Z,47.60
2023-05-12T16:05:50.571Z,48.34
2023-05-12T16:08:17.038Z,48.46
2023-05-12T16:10:43.533Z,47.99
2023-05-12T16:13:10.003Z,48.03
2023-05-12T16:15:36.721Z,47.78
2023-05-12T16:18:03.162Z,47.32
2023-05-12T16:20:29.691Z,48.14
2023-05-12T16:22:56.204Z,47.95
2023-05-12T16:25:22.752Z,47.66
2023-05-12T16:27:49.141Z,48.10
2023-05-12T16:30:17.185Z,47.62
2023-05-12T16:32:45.104Z,48.39
2023-05-12T16:35:11.691Z,49.03
2023-05-12T16:37:38.429Z,49.06
2023-05-12T16:40:04.915Z,49.55
2023-05-12T16:42:31.767Z,48.96
2023-05-12T16:44:58.468Z,49.10
2023-05-12T16:47:25.099Z,48.68
2023-05-12T16:49:51.793Z,48.49
2023-05-12T16:52:18.255Z,48.77
2023-05-12T16:54:45.058Z,48.80
2023-05-12T16:57:11.647Z,48.67
2023-05-12T16:59:38.601Z,48.43
2023-05-12T17:02:05.437Z,48.35
2023-05-12T17:04:32.531Z,48.13
2023-05-12T17:06:59.300Z,48.21
2023-05-12T17:09:26.230Z,48.47
2023-05-12T17:11:53.035Z,48.32
2023-05-12T17:14:20.192Z,48.28
2023-05-12T17:16:47.198Z,47.92
2023-05-12T17:19:15.030Z,47.99
2023-05-12T17:21:42.186Z,47.84
2023-05-12T17:24:09.258Z,48.17
2023-05-12T17:26:36.808Z,48.05
2023-05-12T17:29:04.138Z,48.28
2023-05-12T17:31:31.153Z,48.30
2023-05-12T17:33:58.487Z,48.14
2023-05-12T17:36:25.588Z,47.97
2023-05-12T17:38:52.987Z,48.21
2023-05-12T17:41:20.067Z,48.52
2023-05-12T17:43:47.021Z,48.17
2023-05-12T17:46:14.859Z,48.08
2023-05-12T17:48:41.911Z,48.27
2023-05-12T17:51:09.347Z,48.56
2023-05-12T17:53:36.674Z,48.46
2023-05-12T17:56:03.799Z,48.67
2023-05-12T17:58:31.025Z,48.22
2023-05-12T18:00:58.279Z,48.55
2023-05-12T18:03:25.420Z,48.85
2023-05-12T18:05:52.570Z,48.73
2023-05-12T18:08:19.745Z,48.84
2023-05-12T18:10:46.815Z,48.71
2023-05-12T18:13:14.465Z,49.42
2023-05-12T18:15:41.606Z,49.64
2023-05-12T18:18:10.107Z,49.52
2023-05-12T18:20:37.765Z,49.15
2023-05-12T18:23:05.557Z,49.17
2023-05-12T18:25:33.078Z,48.94
2023-05-12T18:28:00.665Z,48.87
2023-05-12T18:30:28.309Z,49.11
2023-05-12T18:32:55.490Z,49.58
2023-05-12T18:35:23.096Z,49.12
2023-05-12T18:37:50.883Z,49.42
2023-05-12T18:40:18.066Z,48.88
2023-05-12T18:42:45.237Z,50.59
2023-05-12T18:45:12.739Z,49.77
2023-05-12T18:47:40.004Z,48.46
2023-05-12T18:50:07.190Z,48.24
2023-05-12T18:52:34.678Z,48.84
2023-05-12T18:55:01.841Z,48.62
2023-05-12T18:57:29.026Z,49.22
2023-05-12T18:59:56.169Z,49.28
2023-05-12T19:02:23.371Z,49.18
2023-05-12T19:04:50.619Z,48.45
2023-05-12T19:07:17.985Z,47.94
2023-05-12T19:09:45.173Z,48.06
2023-05-12T19:12:12.766Z,48.20
2023-05-12T19:14:40.826Z,48.21
2023-05-12T19:17:08.996Z,48.13
2023-05-12T19:19:36.462Z,48.45
2023-05-12T19:22:03.712Z,48.58
2023-05-12T19:24:30.875Z,48.51
2023-05-12T19:26:58.274Z,48.63
2023-05-12T19:29:25.810Z,49.27
2023-05-12T19:31:53.232Z,49.21
2023-05-12T19:34:22.654Z,48.89
2023-05-12T19:36:49.857Z,48.89
2023-05-12T19:39:17.058Z,49.13
2023-05-12T19:41:44.812Z,49.42
2023-05-12T19:44:12.526Z,49.63
2023-05-12T19:46:41.380Z,49.10
2023-05-12T19:49:08.543Z,49.42
2023-05-12T19:51:35.746Z,49.62
2023-05-12T19:54:02.864Z,49.94
2023-05-12T19:56:29.986Z,49.73
2023-05-12T19:58:57.125Z,49.34
2023-05-12T20:01:24.609Z,50.48
2023-05-12T20:03:52.320Z,50.58
2023-05-12T20:06:19.812Z,50.02
2023-05-12T20:08:46.975Z,49.89
2023-05-12T20:11:14.059Z,49.87
2023-05-12T20:13:41.339Z,50.44
2023-05-12T20:16:08.705Z,49.82
2023-05-12T20:18:35.881Z,49.73
2023-05-12T20:21:03.059Z,50.45
2023-05-12T20:23:30.160Z,50.28
2023-05-12T20:25:57.312Z,50.54
2023-05-12T20:28:24.602Z,51.22
2023-05-12T20:30:51.750Z,50.70
2023-05-12T20:33:18.759Z,50.52
2023-05-12T20:35:46.691Z,50.28
2023-05-12T20:38:13.769Z,50.99
2023-05-12T20:40:41.539Z,50.72
2023-05-12T20:43:08.685Z,51.01
2023-05-12T20:45:45.297Z,50.89
2023-05-12T20:48:12.349Z,51.14
2023-05-12T20:50:39.582Z,50.80
2023-05-12T20:53:06.550Z,51.10
2023-05-12T20:55:33.346Z,51.12
2023-05-12T20:58:00.411Z,51.67
2023-05-12T21:00:26.837Z,50.96
2023-05-12T21:02:53.305Z,51.01
2023-05-12T21:05:19.983Z,50.65
2023-05-12T21:07:46.655Z,50.71
2023-05-12T21:10:13.063Z,50.76
2023-05-12T21:12:39.453Z,50.71
2023-05-12T21:15:05.913Z,51.04
2023-05-12T21:17:32.315Z,51.29
2023-05-12T21:19:59.098Z,50.64
2023-05-12T21:22:25.469Z,50.82
2023-05-12T21:24:52.552Z,50.95
2023-05-12T21:27:18.990Z,51.27
2023-05-12T21:29:45.464Z,52.31
2023-05-12T21:32:11.953Z,51.85
2023-05-12T21:34:38.348Z,52.22
2023-05-12T21:37:04.895Z,52.44
2023-05-12T21:39:31.383Z,52.23
2023-05-12T21:41:57.928Z,51.89
2023-05-12T21:44:24.296Z,51.95
2023-05-12T21:46:50.760Z,51.97
2023-05-12T21:49:17.124Z,51.68
2023-05-12T21:51:43.545Z,52.05
2023-05-12T21:54:10.091Z,52.19
2023-05-12T21:56:36.783Z,51.97
2023-05-12T21:59:03.307Z,51.38
2023-05-12T22:01:29.824Z,51.59
2023-05-12T22:03:56.381Z,51.89
2023-05-12T22:06:22.826Z,51.78
2023-05-12T22:08:49.251Z,51.97
2023-05-12T22:11:15.618Z,51.82
2023-05-12T22:13:42.048Z,52.37
2023-05-12T22:16:08.443Z,51.75
2023-05-12T22:18:35.356Z,52.63
2023-05-12T22:21:01.890Z,52.30
2023-05-12T22:23:28.301Z,51.68
2023-05-12T22:25:54.700Z,51.73
2023-05-12T22:28:21.183Z,51.72
2023-05-12T22:30:47.565Z,51.72
2023-05-12T22:33:13.894Z,51.36
2023-05-12T22:35:40.294Z,51.41
2023-05-12T22:38:06.647Z,51.91
2023-05-12T22:40:33.106Z,52.30
2023-05-12T22:42:59.480Z,52.53
2023-05-12T22:45:25.981Z,52.49
2023-05-12T22:47:52.383Z,52.63
2023-05-12T22:50:19.101Z,52.94
2023-05-12T22:52:45.792Z,52.40
2023-05-12T22:55:12.276Z,52.67
2023-05-12T22:57:38.691Z,52.26
2023-05-12T23:00:05.167Z,52.07
2023-05-12T23:02:31.658Z,52.63
2023-05-12T23:04:58.064Z,52.29
2023-05-12T23:07:24.506Z,52.52
2023-05-12T23:09:50.899Z,52.58
2023-05-12T23:12:17.521Z,52.11
2023-05-12T23:14:43.953Z,52.64
2023-05-12T23:17:10.337Z,52.34
2023-05-12T23:19:36.786Z,52.17
2023-05-12T23:22:03.210Z,52.68
2023-05-12T23:24:31.987Z,53.23
2023-05-12T23:26:58.327Z,53.34
2023-05-12T23:29:24.694Z,52.51
2023-05-12T23:31:51.160Z,52.78
2023-05-12T23:34:17.646Z,52.59
2023-05-12T23:36:44.019Z,52.61
2023-05-12T23:39:10.508Z,52.39
2023-05-12T23:41:37.022Z,52.31
2023-05-12T23:44:03.657Z,52.65
2023-05-12T23:46:30.602Z,52.25
2023-05-12T23:48:56.978Z,52.60
2023-05-12T23:51:23.353Z,52.39
2023-05-12T23:53:49.885Z,52.44
2023-05-12T23:56:16.499Z,52.37
2023-05-12T23:58:42.882Z,53.01
